createdAt,value
2023-03-29T00:00:02.910Z,2.2
2023-03-29T00:20:02.409Z,2
2023-03-29T00:40:02.731Z,1.9
2023-03-29T01:00:02.015Z,1.8
2023-03-29T01:20:02.713Z,1.7
2023-03-29T01:40:02.981Z,1.6
2023-03-29T02:00:02.268Z,1.6
2023-03-29T02:20:02.861Z,1.6
2023-03-29T02:40:02.291Z,1.5
2023-03-29T03:00:02.684Z,1.4
2023-03-29T03:20:02.237Z,1.4
2023-03-29T03:40:02.624Z,1.4
2023-03-29T04:00:03.001Z,1.3
2023-03-29T04:20:02.574Z,1.3
2023-03-29T04:40:02.938Z,1.4
2023-03-29T05:00:02.604Z,1.5
2023-03-29T05:20:02.547Z,1.6
2023-03-29T05:40:05.384Z,1.8
2023-03-29T06:00:02.808Z,2.1
2023-03-29T06:20:02.470Z,2.3
2023-03-29T06:40:02.745Z,2.8
2023-03-29T07:00:03.321Z,3.1
2023-03-29T07:20:02.856Z,3.6
2023-03-29T07:40:02.263Z,4.1
2023-03-29T08:00:02.698Z,4.7
2023-03-29T08:20:02.297Z,5.5
2023-03-29T08:40:02.692Z,7.9
2023-03-29T09:00:03.178Z,9.9
2023-03-29T09:20:02.636Z,9.9
2023-03-29T09:40:05.048Z,10.9
2023-03-29T10:00:02.619Z,10.5
2023-03-29T10:20:04.320Z,10.7
2023-03-29T10:40:02.307Z,11.2
2023-03-29T11:00:02.728Z,10.8
2023-03-29T11:20:04.497Z,10.6
2023-03-29T11:40:02.633Z,10.7
2023-03-29T12:00:03.027Z,10.5
2023-03-29T12:20:02.921Z,10.3
2023-03-29T12:40:02.276Z,10.6
2023-03-29T13:00:02.853Z,10.5
2023-03-29T13:20:02.412Z,10.6
2023-03-29T13:40:03.062Z,10.7
2023-03-29T14:00:02.474Z,10.6
2023-03-29T14:20:02.767Z,10.5
2023-03-29T14:40:02.163Z,10.6
2023-03-29T15:00:02.697Z,10.5
2023-03-29T15:20:02.475Z,10.5
2023-03-29T15:40:02.737Z,10.5
2023-03-29T16:00:02.273Z,10.2
2023-03-29T16:20:02.987Z,10.2
2023-03-29T16:40:02.615Z,10.1
2023-03-29T17:00:02.854Z,10
2023-03-29T17:20:03.472Z,9.8
2023-03-29T17:40:02.786Z,9.7
2023-03-29T18:00:02.272Z,9.6
2023-03-29T18:20:03.067Z,9.5
2023-03-29T18:40:02.521Z,9.4
2023-03-29T19:00:03.108Z,9.3
2023-03-29T19:20:02.815Z,9.2
2023-03-29T19:40:02.311Z,9.1
2023-03-29T20:00:02.650Z,9
2023-03-29T20:20:02.406Z,8.9
2023-03-29T20:40:02.688Z,8.8
2023-03-29T21:00:02.953Z,8.8
2023-03-29T21:20:02.351Z,8.8
2023-03-29T21:40:02.630Z,8.8
2023-03-29T22:00:03.120Z,8.8
2023-03-29T22:20:02.768Z,8.6
2023-03-29T22:40:02.021Z,8.6
2023-03-29T23:00:02.312Z,8.6
2023-03-29T23:20:02.936Z,8.6
2023-03-29T23:40:03.102Z,8.6
